WST716 MYNN-MYGF
Flight info
| Callsign | WST716 |
|---|---|
| Flight time | 0h 27m |
| Altitude | 16000 |
| Route | PEACH BR65V ZFP |
| Aircraft | E145/M-SABDFGRW/S |
Departure
| Time | 2026-04-21 20:38 |
|---|---|
| Airport | Lynden Pindling International Airport (MYNN) |
Arrival
| Time | 2026-04-21 21:06 |
|---|---|
| Airport | Grand Bahama International Airport (MYGF) |
| Time | Latitude | Longitude | Altitude | Speed | Heading |
|---|---|---|---|---|---|
| 2026-04-21 20:27 | 25.04713 | -77.46550 | 25 ft | 0 kts | 358° |
| 2026-04-21 20:34 | 25.04714 | -77.46550 | 25 ft | 0 kts | 357° |
| 2026-04-21 20:34 | 25.04717 | -77.46560 | 25 ft | 5 kts | 261° |
| 2026-04-21 20:34 | 25.04706 | -77.46620 | 25 ft | 9 kts | 275° |
| 2026-04-21 20:34 | 25.04730 | -77.46685 | 25 ft | 10 kts | 290° |
| 2026-04-21 20:35 | 25.04706 | -77.46759 | 25 ft | 10 kts | 268° |
| 2026-04-21 20:35 | 25.04744 | -77.46822 | 25 ft | 12 kts | 313° |
| 2026-04-21 20:35 | 25.04955 | -77.47051 | 25 ft | 66 kts | 314° |
| 2026-04-21 20:35 | 25.05215 | -77.47355 | 25 ft | 37 kts | 307° |
| 2026-04-21 20:36 | 25.05188 | -77.47518 | 24 ft | 21 kts | 209° |
| 2026-04-21 20:36 | 25.05115 | -77.47493 | 24 ft | 0 kts | 135° |
| 2026-04-21 20:36 | 25.05111 | -77.47488 | 24 ft | 1 kts | 134° |
| 2026-04-21 20:36 | 25.05103 | -77.47480 | 25 ft | 0 kts | 134° |
| 2026-04-21 20:37 | 25.05101 | -77.47478 | 25 ft | 1 kts | 134° |
| 2026-04-21 20:37 | 25.05093 | -77.47469 | 25 ft | 2 kts | 133° |
| 2026-04-21 20:37 | 25.05080 | -77.47454 | 25 ft | 3 kts | 133° |
| 2026-04-21 20:37 | 25.05078 | -77.47451 | 25 ft | 0 kts | 134° |
| 2026-04-21 20:38 | 25.04948 | -77.47305 | 25 ft | 63 kts | 135° |
| 2026-04-21 20:38 | 25.04479 | -77.46785 | 25 ft | 126 kts | 133° |
| 2026-04-21 20:38 | 25.03804 | -77.46188 | 616 ft | 112 kts | 144° |
| 2026-04-21 20:38 | 25.03183 | -77.45627 | 886 ft | 122 kts | 126° |
| 2026-04-21 20:39 | 25.02715 | -77.44869 | 1250 ft | 122 kts | 92° |
| 2026-04-21 20:39 | 25.02885 | -77.43933 | 1583 ft | 132 kts | 57° |
| 2026-04-21 20:39 | 25.03681 | -77.43408 | 1981 ft | 149 kts | 12° |
| 2026-04-21 20:39 | 25.04660 | -77.43720 | 2466 ft | 165 kts | 340° |
| 2026-04-21 20:40 | 25.05754 | -77.44465 | 2842 ft | 196 kts | 333° |
| 2026-04-21 20:40 | 25.06939 | -77.45426 | 3275 ft | 225 kts | 329° |
| 2026-04-21 20:40 | 25.08213 | -77.46526 | 3869 ft | 244 kts | 327° |
| 2026-04-21 20:40 | 25.09552 | -77.47702 | 4582 ft | 258 kts | 324° |
| 2026-04-21 20:41 | 25.10986 | -77.48967 | 5385 ft | 268 kts | 323° |
| 2026-04-21 20:41 | 25.12442 | -77.50253 | 6245 ft | 275 kts | 322° |
| 2026-04-21 20:41 | 25.13954 | -77.51590 | 7143 ft | 280 kts | 322° |
| 2026-04-21 20:41 | 25.15472 | -77.52930 | 8058 ft | 282 kts | 322° |
| 2026-04-21 20:42 | 25.16974 | -77.54259 | 8952 ft | 275 kts | 322° |
| 2026-04-21 20:42 | 25.18439 | -77.55554 | 9805 ft | 270 kts | 322° |
| 2026-04-21 20:42 | 25.19866 | -77.56816 | 10601 ft | 264 kts | 322° |
| 2026-04-21 20:42 | 25.21285 | -77.58070 | 11400 ft | 260 kts | 321° |
| 2026-04-21 20:43 | 25.22690 | -77.59314 | 12158 ft | 257 kts | 321° |
| 2026-04-21 20:43 | 25.24074 | -77.60539 | 12886 ft | 254 kts | 321° |
| 2026-04-21 20:43 | 25.25435 | -77.61745 | 13567 ft | 252 kts | 321° |
| 2026-04-21 20:43 | 25.26796 | -77.62949 | 14232 ft | 250 kts | 321° |
| 2026-04-21 20:44 | 25.28139 | -77.64140 | 14879 ft | 248 kts | 321° |
| 2026-04-21 20:44 | 25.29487 | -77.65334 | 15507 ft | 246 kts | 320° |
| 2026-04-21 20:44 | 25.30807 | -77.66505 | 16068 ft | 247 kts | 320° |
| 2026-04-21 20:44 | 25.32202 | -77.67741 | 16165 ft | 268 kts | 320° |
| 2026-04-21 20:45 | 25.33717 | -77.69085 | 16179 ft | 290 kts | 320° |
| 2026-04-21 20:45 | 25.35359 | -77.70542 | 16177 ft | 311 kts | 321° |
| 2026-04-21 20:45 | 25.37085 | -77.72074 | 16178 ft | 328 kts | 321° |
| 2026-04-21 20:45 | 25.38908 | -77.73692 | 16175 ft | 339 kts | 321° |
| 2026-04-21 20:46 | 25.40755 | -77.75333 | 16169 ft | 349 kts | 321° |
| 2026-04-21 20:46 | 25.42676 | -77.77042 | 16168 ft | 357 kts | 320° |
| 2026-04-21 20:46 | 25.44524 | -77.78914 | 16164 ft | 364 kts | 320° |
| 2026-04-21 20:46 | 25.46663 | -77.80470 | 16177 ft | 370 kts | 326° |
| 2026-04-21 20:47 | 25.48815 | -77.82107 | 16138 ft | 378 kts | 324° |
| 2026-04-21 20:47 | 25.50956 | -77.83806 | 15935 ft | 380 kts | 323° |
| 2026-04-21 20:47 | 25.53099 | -77.85535 | 15917 ft | 374 kts | 323° |
| 2026-04-21 20:47 | 25.55177 | -77.87220 | 15915 ft | 370 kts | 323° |
| 2026-04-21 20:48 | 25.57251 | -77.88907 | 15917 ft | 366 kts | 323° |
| 2026-04-21 20:48 | 25.59283 | -77.90561 | 15919 ft | 364 kts | 323° |
| 2026-04-21 20:48 | 25.61338 | -77.92236 | 15924 ft | 364 kts | 323° |
| 2026-04-21 20:48 | 25.63342 | -77.93868 | 15921 ft | 364 kts | 323° |
| 2026-04-21 20:49 | 25.65398 | -77.95545 | 15826 ft | 367 kts | 323° |
| 2026-04-21 20:49 | 25.67471 | -77.97237 | 15557 ft | 374 kts | 323° |
| 2026-04-21 20:49 | 25.69429 | -77.98834 | 15315 ft | 380 kts | 323° |
| 2026-04-21 20:49 | 25.71643 | -78.00642 | 15042 ft | 382 kts | 323° |
| 2026-04-21 20:50 | 25.73766 | -78.02377 | 14771 ft | 380 kts | 323° |
| 2026-04-21 20:50 | 25.75905 | -78.04124 | 14506 ft | 379 kts | 323° |
| 2026-04-21 20:50 | 25.78010 | -78.05845 | 14239 ft | 374 kts | 323° |
| 2026-04-21 20:50 | 25.80100 | -78.07554 | 13968 ft | 369 kts | 323° |
| 2026-04-21 20:51 | 25.82146 | -78.09228 | 13695 ft | 365 kts | 323° |
| 2026-04-21 20:51 | 25.84172 | -78.10886 | 13426 ft | 361 kts | 324° |
| 2026-04-21 20:51 | 25.86187 | -78.12537 | 13161 ft | 357 kts | 324° |
| 2026-04-21 20:51 | 25.88193 | -78.14181 | 12887 ft | 354 kts | 324° |
| 2026-04-21 20:52 | 25.90171 | -78.15801 | 12622 ft | 352 kts | 324° |
| 2026-04-21 20:52 | 25.92123 | -78.17403 | 12355 ft | 350 kts | 324° |
| 2026-04-21 20:52 | 25.94080 | -78.19008 | 12087 ft | 348 kts | 324° |
| 2026-04-21 20:52 | 25.96029 | -78.20608 | 11819 ft | 346 kts | 324° |
| 2026-04-21 20:53 | 25.97951 | -78.22186 | 11547 ft | 345 kts | 324° |
| 2026-04-21 20:53 | 25.99912 | -78.23797 | 11114 ft | 348 kts | 324° |
| 2026-04-21 20:53 | 26.01840 | -78.25381 | 10688 ft | 350 kts | 324° |
| 2026-04-21 20:53 | 26.03833 | -78.27020 | 10245 ft | 352 kts | 324° |
| 2026-04-21 20:54 | 26.05782 | -78.28622 | 9813 ft | 353 kts | 324° |
| 2026-04-21 20:54 | 26.07753 | -78.30244 | 9375 ft | 348 kts | 324° |
| 2026-04-21 20:54 | 26.09665 | -78.31820 | 8926 ft | 332 kts | 324° |
| 2026-04-21 20:54 | 26.11482 | -78.33316 | 8486 ft | 320 kts | 324° |
| 2026-04-21 20:55 | 26.13168 | -78.34858 | 8002 ft | 306 kts | 315° |
| 2026-04-21 20:55 | 26.14590 | -78.36506 | 7556 ft | 287 kts | 315° |
| 2026-04-21 20:55 | 26.15938 | -78.38058 | 7111 ft | 273 kts | 316° |
| 2026-04-21 20:55 | 26.17220 | -78.39536 | 6929 ft | 251 kts | 316° |
| 2026-04-21 20:56 | 26.18370 | -78.40863 | 6913 ft | 227 kts | 316° |
| 2026-04-21 20:56 | 26.19419 | -78.42074 | 6910 ft | 206 kts | 316° |
| 2026-04-21 20:56 | 26.20380 | -78.43182 | 6880 ft | 188 kts | 316° |
| 2026-04-21 20:56 | 26.21247 | -78.44183 | 6847 ft | 171 kts | 317° |
| 2026-04-21 20:57 | 26.22040 | -78.45095 | 6750 ft | 161 kts | 317° |
| 2026-04-21 20:57 | 26.22839 | -78.46012 | 6324 ft | 172 kts | 317° |
| 2026-04-21 20:57 | 26.23719 | -78.47027 | 5835 ft | 189 kts | 318° |
| 2026-04-21 20:57 | 26.24671 | -78.48126 | 5329 ft | 205 kts | 318° |
| 2026-04-21 20:58 | 26.25701 | -78.49315 | 4810 ft | 220 kts | 318° |
| 2026-04-21 20:58 | 26.26779 | -78.50561 | 4298 ft | 232 kts | 319° |
| 2026-04-21 20:58 | 26.27928 | -78.51890 | 3775 ft | 243 kts | 319° |
| 2026-04-21 20:58 | 26.29125 | -78.53275 | 3302 ft | 249 kts | 319° |
| 2026-04-21 20:59 | 26.30326 | -78.54666 | 3019 ft | 247 kts | 320° |
| 2026-04-21 20:59 | 26.31515 | -78.56042 | 2729 ft | 245 kts | 320° |
| 2026-04-21 20:59 | 26.32666 | -78.57374 | 2445 ft | 243 kts | 320° |
| 2026-04-21 20:59 | 26.33845 | -78.58740 | 2218 ft | 238 kts | 320° |
| 2026-04-21 21:00 | 26.34975 | -78.60049 | 2070 ft | 231 kts | 320° |
| 2026-04-21 21:00 | 26.36069 | -78.61317 | 1971 ft | 222 kts | 320° |
| 2026-04-21 21:00 | 26.37115 | -78.62530 | 1908 ft | 212 kts | 321° |
| 2026-04-21 21:00 | 26.38112 | -78.63687 | 1867 ft | 203 kts | 321° |
| 2026-04-21 21:01 | 26.39127 | -78.64856 | 1853 ft | 214 kts | 321° |
| 2026-04-21 21:01 | 26.40179 | -78.66072 | 1842 ft | 224 kts | 320° |
| 2026-04-21 21:01 | 26.41297 | -78.67368 | 1822 ft | 234 kts | 320° |
| 2026-04-21 21:01 | 26.42442 | -78.68695 | 1810 ft | 242 kts | 319° |
| 2026-04-21 21:02 | 26.43605 | -78.70046 | 1795 ft | 249 kts | 319° |
| 2026-04-21 21:02 | 26.44766 | -78.71394 | 1786 ft | 247 kts | 320° |
| 2026-04-21 21:02 | 26.45878 | -78.72694 | 1791 ft | 223 kts | 320° |
| 2026-04-21 21:02 | 26.46902 | -78.73888 | 1727 ft | 206 kts | 320° |
| 2026-04-21 21:03 | 26.47873 | -78.74990 | 1650 ft | 189 kts | 328° |
| 2026-04-21 21:03 | 26.48976 | -78.75467 | 1580 ft | 159 kts | 1° |
| 2026-04-21 21:03 | 26.50025 | -78.75435 | 1507 ft | 142 kts | 16° |
| 2026-04-21 21:03 | 26.50960 | -78.75214 | 1422 ft | 126 kts | 21° |
| 2026-04-21 21:04 | 26.51731 | -78.74961 | 1322 ft | 114 kts | 24° |
| 2026-04-21 21:04 | 26.52499 | -78.74670 | 1254 ft | 115 kts | 27° |
| 2026-04-21 21:04 | 26.53241 | -78.74345 | 1139 ft | 114 kts | 38° |
| 2026-04-21 21:04 | 26.53766 | -78.73694 | 915 ft | 119 kts | 53° |
| 2026-04-21 21:05 | 26.54236 | -78.72859 | 555 ft | 129 kts | 61° |
| 2026-04-21 21:05 | 26.54630 | -78.72039 | 238 ft | 111 kts | 58° |
| 2026-04-21 21:05 | 26.55003 | -78.71297 | 79 ft | 105 kts | 60° |
| 2026-04-21 21:05 | 26.55350 | -78.70606 | 28 ft | 95 kts | 60° |
| 2026-04-21 21:06 | 26.55636 | -78.70033 | 12 ft | 72 kts | 61° |
| 2026-04-21 21:06 | 26.55847 | -78.69598 | 12 ft | 45 kts | 60° |
| 2026-04-21 21:06 | 26.55854 | -78.69441 | 12 ft | 19 kts | 144° |
| 2026-04-21 21:06 | 26.55745 | -78.69486 | 12 ft | 19 kts | 222° |
| 2026-04-21 21:07 | 26.55641 | -78.69589 | 12 ft | 21 kts | 220° |
| 2026-04-21 21:07 | 26.55523 | -78.69703 | 12 ft | 23 kts | 220° |
| 2026-04-21 21:07 | 26.55397 | -78.69825 | 12 ft | 25 kts | 223° |
| 2026-04-21 21:07 | 26.55259 | -78.69960 | 12 ft | 27 kts | 221° |
| 2026-04-21 21:08 | 26.55117 | -78.70097 | 12 ft | 24 kts | 220° |
| 2026-04-21 21:08 | 26.54984 | -78.70223 | 12 ft | 24 kts | 220° |
| 2026-04-21 21:08 | 26.54920 | -78.70211 | 12 ft | 7 kts | 83° |
| 2026-04-21 21:08 | 26.54919 | -78.70116 | 12 ft | 23 kts | 93° |
| 2026-04-21 21:09 | 26.54915 | -78.69931 | 12 ft | 23 kts | 90° |
| 2026-04-21 21:09 | 26.54913 | -78.69769 | 12 ft | 11 kts | 92° |
| 2026-04-21 21:09 | 26.54886 | -78.69754 | 12 ft | 4 kts | 183° |
| 2026-04-21 21:09 | 26.54869 | -78.69755 | 12 ft | 0 kts | 183° |